sensor_id;sensor_type;location;lat;lon;timestamp;P1;durP1;ratioP1;P2;durP2;ratioP2
3034;SDS011;1527;48.836;9.172;2022-09-23T00:02:02;8.27;;;6.55;;
3034;SDS011;1527;48.836;9.172;2022-09-23T00:04:34;10.52;;;7.55;;
3034;SDS011;1527;48.836;9.172;2022-09-23T00:07:03;9.60;;;7.50;;
3034;SDS011;1527;48.836;9.172;2022-09-23T00:09:35;10.43;;;7.68;;
3034;SDS011;1527;48.836;9.172;2022-09-23T00:12:04;10.73;;;7.28;;
3034;SDS011;1527;48.836;9.172;2022-09-23T00:14:36;10.20;;;7.22;;
3034;SDS011;1527;48.836;9.172;2022-09-23T00:17:06;11.55;;;8.10;;
3034;SDS011;1527;48.836;9.172;2022-09-23T00:19:38;12.98;;;8.00;;
3034;SDS011;1527;48.836;9.172;2022-09-23T00:22:07;7.63;;;6.82;;
3034;SDS011;1527;48.836;9.172;2022-09-23T00:24:36;9.02;;;8.10;;
3034;SDS011;1527;48.836;9.172;2022-09-23T00:27:06;9.35;;;7.80;;
3034;SDS011;1527;48.836;9.172;2022-09-23T00:29:36;14.15;;;8.07;;
3034;SDS011;1527;48.836;9.172;2022-09-23T00:32:05;10.15;;;7.97;;
3034;SDS011;1527;48.836;9.172;2022-09-23T00:34:34;9.18;;;7.90;;
3034;SDS011;1527;48.836;9.172;2022-09-23T00:37:04;8.15;;;7.35;;
3034;SDS011;1527;48.836;9.172;2022-09-23T00:39:34;8.90;;;7.75;;
3034;SDS011;1527;48.836;9.172;2022-09-23T00:42:03;9.52;;;7.47;;
3034;SDS011;1527;48.836;9.172;2022-09-23T00:44:43;8.85;;;7.25;;
3034;SDS011;1527;48.836;9.172;2022-09-23T00:47:17;14.50;;;8.52;;
3034;SDS011;1527;48.836;9.172;2022-09-23T00:49:53;10.93;;;9.10;;
3034;SDS011;1527;48.836;9.172;2022-09-23T00:52:31;9.45;;;7.50;;
3034;SDS011;1527;48.836;9.172;2022-09-23T00:55:02;8.27;;;7.38;;
3034;SDS011;1527;48.836;9.172;2022-09-23T00:57:36;9.52;;;8.55;;
3034;SDS011;1527;48.836;9.172;2022-09-23T01:00:07;10.63;;;7.80;;
3034;SDS011;1527;48.836;9.172;2022-09-23T01:02:41;11.70;;;8.60;;
3034;SDS011;1527;48.836;9.172;2022-09-23T01:05:10;10.50;;;8.32;;
3034;SDS011;1527;48.836;9.172;2022-09-23T01:07:41;9.65;;;8.32;;
3034;SDS011;1527;48.836;9.172;2022-09-23T01:10:11;9.02;;;8.13;;
3034;SDS011;1527;48.836;9.172;2022-09-23T01:15:39;9.30;;;8.35;;
3034;SDS011;1527;48.836;9.172;2022-09-23T01:18:19;9.35;;;7.75;;
3034;SDS011;1527;48.836;9.172;2022-09-23T01:21:04;11.38;;;8.80;;
3034;SDS011;1527;48.836;9.172;2022-09-23T01:26:54;9.77;;;8.77;;
3034;SDS011;1527;48.836;9.172;2022-09-23T01:33:02;14.13;;;7.07;;
3034;SDS011;1527;48.836;9.172;2022-09-23T01:35:40;12.23;;;8.30;;
3034;SDS011;1527;48.836;9.172;2022-09-23T01:38:24;8.40;;;7.60;;
3034;SDS011;1527;48.836;9.172;2022-09-23T01:41:07;10.52;;;8.15;;
3034;SDS011;1527;48.836;9.172;2022-09-23T01:43:53;12.32;;;9.38;;
3034;SDS011;1527;48.836;9.172;2022-09-23T01:46:30;10.18;;;8.23;;
3034;SDS011;1527;48.836;9.172;2022-09-23T01:49:06;17.13;;;8.35;;
3034;SDS011;1527;48.836;9.172;2022-09-23T01:51:41;8.90;;;7.32;;
3034;SDS011;1527;48.836;9.172;2022-09-23T01:54:14;10.63;;;7.78;;
3034;SDS011;1527;48.836;9.172;2022-09-23T01:56:51;8.55;;;7.35;;
3034;SDS011;1527;48.836;9.172;2022-09-23T01:59:29;11.63;;;7.15;;
3034;SDS011;1527;48.836;9.172;2022-09-23T02:02:04;9.85;;;7.00;;
3034;SDS011;1527;48.836;9.172;2022-09-23T02:04:44;9.75;;;7.70;;
3034;SDS011;1527;48.836;9.172;2022-09-23T02:07:18;10.57;;;7.20;;
3034;SDS011;1527;48.836;9.172;2022-09-23T02:09:53;10.75;;;8.65;;
3034;SDS011;1527;48.836;9.172;2022-09-23T02:12:26;6.57;;;5.97;;
3034;SDS011;1527;48.836;9.172;2022-09-23T02:15:02;9.65;;;7.53;;
3034;SDS011;1527;48.836;9.172;2022-09-23T02:17:36;7.22;;;6.22;;
3034;SDS011;1527;48.836;9.172;2022-09-23T02:20:15;7.18;;;6.47;;
3034;SDS011;1527;48.836;9.172;2022-09-23T02:22:52;7.65;;;6.25;;
3034;SDS011;1527;48.836;9.172;2022-09-23T02:25:38;7.47;;;6.70;;
3034;SDS011;1527;48.836;9.172;2022-09-23T02:28:16;10.93;;;7.38;;
3034;SDS011;1527;48.836;9.172;2022-09-23T02:30:54;7.60;;;6.40;;
3034;SDS011;1527;48.836;9.172;2022-09-23T02:33:32;9.10;;;6.18;;
3034;SDS011;1527;48.836;9.172;2022-09-23T02:36:07;6.95;;;5.63;;
3034;SDS011;1527;48.836;9.172;2022-09-23T02:38:45;6.47;;;5.88;;
3034;SDS011;1527;48.836;9.172;2022-09-23T02:41:21;10.85;;;5.95;;
3034;SDS011;1527;48.836;9.172;2022-09-23T02:43:56;8.10;;;7.18;;
3034;SDS011;1527;48.836;9.172;2022-09-23T02:46:32;8.05;;;5.90;;
3034;SDS011;1527;48.836;9.172;2022-09-23T02:49:02;7.60;;;6.20;;
3034;SDS011;1527;48.836;9.172;2022-09-23T02:51:38;10.75;;;6.68;;
3034;SDS011;1527;48.836;9.172;2022-09-23T02:54:09;8.68;;;6.25;;
3034;SDS011;1527;48.836;9.172;2022-09-23T02:56:41;9.60;;;7.20;;
3034;SDS011;1527;48.836;9.172;2022-09-23T02:59:11;11.50;;;7.15;;
3034;SDS011;1527;48.836;9.172;2022-09-23T03:01:43;11.07;;;6.80;;
3034;SDS011;1527;48.836;9.172;2022-09-23T03:04:25;13.30;;;7.03;;
3034;SDS011;1527;48.836;9.172;2022-09-23T03:07:07;7.85;;;7.15;;
3034;SDS011;1527;48.836;9.172;2022-09-23T03:09:46;10.77;;;8.27;;
3034;SDS011;1527;48.836;9.172;2022-09-23T03:12:25;9.13;;;7.60;;
3034;SDS011;1527;48.836;9.172;2022-09-23T03:15:07;10.10;;;8.25;;
3034;SDS011;1527;48.836;9.172;2022-09-23T03:17:48;9.48;;;8.57;;
3034;SDS011;1527;48.836;9.172;2022-09-23T03:20:24;10.80;;;9.23;;
3034;SDS011;1527;48.836;9.172;2022-09-23T03:23:02;9.82;;;7.72;;
3034;SDS011;1527;48.836;9.172;2022-09-23T03:25:36;9.65;;;8.05;;
3034;SDS011;1527;48.836;9.172;2022-09-23T03:28:09;15.52;;;8.50;;
3034;SDS011;1527;48.836;9.172;2022-09-23T03:30:39;9.90;;;8.13;;
3034;SDS011;1527;48.836;9.172;2022-09-23T03:33:10;10.75;;;9.00;;
3034;SDS011;1527;48.836;9.172;2022-09-23T03:35:43;16.45;;;9.52;;
3034;SDS011;1527;48.836;9.172;2022-09-23T03:38:40;11.05;;;9.50;;
3034;SDS011;1527;48.836;9.172;2022-09-23T03:41:13;12.45;;;9.20;;
3034;SDS011;1527;48.836;9.172;2022-09-23T03:43:45;13.75;;;9.82;;
3034;SDS011;1527;48.836;9.172;2022-09-23T03:46:15;12.85;;;9.02;;
3034;SDS011;1527;48.836;9.172;2022-09-23T03:48:45;13.90;;;9.38;;
3034;SDS011;1527;48.836;9.172;2022-09-23T03:51:19;21.92;;;14.60;;
3034;SDS011;1527;48.836;9.172;2022-09-23T03:53:52;18.75;;;12.80;;
3034;SDS011;1527;48.836;9.172;2022-09-23T03:56:21;18.75;;;11.60;;
3034;SDS011;1527;48.836;9.172;2022-09-23T03:58:50;14.68;;;11.13;;
3034;SDS011;1527;48.836;9.172;2022-09-23T04:01:19;19.60;;;11.40;;
3034;SDS011;1527;48.836;9.172;2022-09-23T04:03:48;14.55;;;10.63;;
3034;SDS011;1527;48.836;9.172;2022-09-23T04:06:19;11.15;;;9.30;;
3034;SDS011;1527;48.836;9.172;2022-09-23T04:08:48;10.80;;;9.25;;
3034;SDS011;1527;48.836;9.172;2022-09-23T04:11:19;16.65;;;10.95;;
3034;SDS011;1527;48.836;9.172;2022-09-23T04:13:48;13.93;;;10.35;;
3034;SDS011;1527;48.836;9.172;2022-09-23T04:16:17;16.40;;;10.82;;
3034;SDS011;1527;48.836;9.172;2022-09-23T04:18:46;13.77;;;10.27;;
3034;SDS011;1527;48.836;9.172;2022-09-23T04:21:16;16.30;;;10.32;;
3034;SDS011;1527;48.836;9.172;2022-09-23T04:23:45;20.70;;;12.63;;
3034;SDS011;1527;48.836;9.172;2022-09-23T04:26:14;24.80;;;14.38;;
3034;SDS011;1527;48.836;9.172;2022-09-23T04:28:46;24.27;;;14.88;;
3034;SDS011;1527;48.836;9.172;2022-09-23T04:31:15;32.88;;;15.63;;
3034;SDS011;1527;48.836;9.172;2022-09-23T04:33:44;32.60;;;17.77;;
3034;SDS011;1527;48.836;9.172;2022-09-23T04:36:13;30.25;;;16.55;;
3034;SDS011;1527;48.836;9.172;2022-09-23T04:38:42;39.50;;;17.38;;
3034;SDS011;1527;48.836;9.172;2022-09-23T04:41:12;34.75;;;16.25;;
3034;SDS011;1527;48.836;9.172;2022-09-23T04:43:42;24.63;;;14.40;;
3034;SDS011;1527;48.836;9.172;2022-09-23T04:46:14;22.33;;;13.10;;
3034;SDS011;1527;48.836;9.172;2022-09-23T04:48:44;17.33;;;11.25;;
3034;SDS011;1527;48.836;9.172;2022-09-23T04:51:14;18.20;;;12.63;;
3034;SDS011;1527;48.836;9.172;2022-09-23T04:53:45;13.98;;;11.00;;
3034;SDS011;1527;48.836;9.172;2022-09-23T04:56:17;14.52;;;10.50;;
3034;SDS011;1527;48.836;9.172;2022-09-23T04:58:48;17.63;;;10.68;;
3034;SDS011;1527;48.836;9.172;2022-09-23T05:01:20;13.88;;;9.82;;
3034;SDS011;1527;48.836;9.172;2022-09-23T05:03:55;16.63;;;10.88;;
3034;SDS011;1527;48.836;9.172;2022-09-23T05:06:28;10.68;;;9.38;;
3034;SDS011;1527;48.836;9.172;2022-09-23T05:08:59;12.20;;;9.60;;
3034;SDS011;1527;48.836;9.172;2022-09-23T05:11:29;12.77;;;9.88;;
3034;SDS011;1527;48.836;9.172;2022-09-23T05:13:58;21.65;;;10.05;;
3034;SDS011;1527;48.836;9.172;2022-09-23T05:16:29;14.07;;;10.25;;
3034;SDS011;1527;48.836;9.172;2022-09-23T05:18:58;13.88;;;10.80;;
3034;SDS011;1527;48.836;9.172;2022-09-23T05:21:28;14.65;;;9.25;;
3034;SDS011;1527;48.836;9.172;2022-09-23T05:23:57;13.82;;;9.88;;
3034;SDS011;1527;48.836;9.172;2022-09-23T05:26:28;15.13;;;10.55;;
3034;SDS011;1527;48.836;9.172;2022-09-23T05:28:59;12.20;;;9.32;;
3034;SDS011;1527;48.836;9.172;2022-09-23T05:31:29;12.88;;;9.63;;
3034;SDS011;1527;48.836;9.172;2022-09-23T05:33:59;15.32;;;9.48;;
3034;SDS011;1527;48.836;9.172;2022-09-23T05:36:31;11.45;;;8.93;;
3034;SDS011;1527;48.836;9.172;2022-09-23T05:39:05;12.90;;;9.23;;
3034;SDS011;1527;48.836;9.172;2022-09-23T05:41:35;11.27;;;9.20;;
3034;SDS011;1527;48.836;9.172;2022-09-23T05:44:06;17.92;;;9.35;;
3034;SDS011;1527;48.836;9.172;2022-09-23T05:46:36;12.75;;;8.95;;
3034;SDS011;1527;48.836;9.172;2022-09-23T05:49:06;10.63;;;9.05;;
3034;SDS011;1527;48.836;9.172;2022-09-23T05:51:36;10.38;;;9.10;;
3034;SDS011;1527;48.836;9.172;2022-09-23T05:54:05;10.57;;;9.52;;
3034;SDS011;1527;48.836;9.172;2022-09-23T05:56:35;11.52;;;8.55;;
3034;SDS011;1527;48.836;9.172;2022-09-23T05:59:04;9.55;;;8.30;;
3034;SDS011;1527;48.836;9.172;2022-09-23T06:01:34;12.98;;;8.82;;
3034;SDS011;1527;48.836;9.172;2022-09-23T06:04:06;10.70;;;8.60;;
3034;SDS011;1527;48.836;9.172;2022-09-23T06:06:41;16.75;;;9.30;;
3034;SDS011;1527;48.836;9.172;2022-09-23T06:09:11;10.77;;;8.30;;
3034;SDS011;1527;48.836;9.172;2022-09-23T06:11:41;10.40;;;8.20;;
3034;SDS011;1527;48.836;9.172;2022-09-23T06:14:11;13.23;;;8.75;;
3034;SDS011;1527;48.836;9.172;2022-09-23T06:16:41;10.20;;;8.15;;
3034;SDS011;1527;48.836;9.172;2022-09-23T06:19:12;10.68;;;8.05;;
3034;SDS011;1527;48.836;9.172;2022-09-23T06:21:41;10.10;;;8.40;;
3034;SDS011;1527;48.836;9.172;2022-09-23T06:24:10;13.35;;;8.50;;
3034;SDS011;1527;48.836;9.172;2022-09-23T06:26:45;10.65;;;9.55;;
3034;SDS011;1527;48.836;9.172;2022-09-23T06:29:15;12.65;;;9.30;;
3034;SDS011;1527;48.836;9.172;2022-09-23T06:31:44;11.20;;;8.50;;
3034;SDS011;1527;48.836;9.172;2022-09-23T06:34:17;8.85;;;7.95;;
3034;SDS011;1527;48.836;9.172;2022-09-23T06:36:47;11.30;;;8.98;;
3034;SDS011;1527;48.836;9.172;2022-09-23T06:39:17;10.52;;;7.80;;
3034;SDS011;1527;48.836;9.172;2022-09-23T06:41:46;9.45;;;8.38;;
3034;SDS011;1527;48.836;9.172;2022-09-23T06:44:15;14.20;;;8.98;;
3034;SDS011;1527;48.836;9.172;2022-09-23T06:46:44;9.13;;;7.75;;
3034;SDS011;1527;48.836;9.172;2022-09-23T06:49:13;11.18;;;9.75;;
3034;SDS011;1527;48.836;9.172;2022-09-23T06:51:44;10.00;;;8.35;;
3034;SDS011;1527;48.836;9.172;2022-09-23T06:54:13;14.02;;;8.75;;
3034;SDS011;1527;48.836;9.172;2022-09-23T06:56:42;9.00;;;7.40;;
3034;SDS011;1527;48.836;9.172;2022-09-23T06:59:13;11.05;;;8.60;;
3034;SDS011;1527;48.836;9.172;2022-09-23T07:01:44;10.30;;;8.90;;
3034;SDS011;1527;48.836;9.172;2022-09-23T07:04:14;14.68;;;9.15;;
3034;SDS011;1527;48.836;9.172;2022-09-23T07:06:45;11.98;;;8.40;;
3034;SDS011;1527;48.836;9.172;2022-09-23T07:09:14;10.25;;;8.63;;
3034;SDS011;1527;48.836;9.172;2022-09-23T07:11:43;14.73;;;8.68;;
3034;SDS011;1527;48.836;9.172;2022-09-23T07:14:13;18.23;;;8.77;;
3034;SDS011;1527;48.836;9.172;2022-09-23T07:16:42;12.40;;;9.02;;
3034;SDS011;1527;48.836;9.172;2022-09-23T07:19:11;14.82;;;9.38;;
3034;SDS011;1527;48.836;9.172;2022-09-23T07:21:40;11.95;;;8.95;;
3034;SDS011;1527;48.836;9.172;2022-09-23T07:24:11;11.25;;;8.80;;
3034;SDS011;1527;48.836;9.172;2022-09-23T07:26:40;10.40;;;8.88;;
3034;SDS011;1527;48.836;9.172;2022-09-23T07:29:12;10.43;;;8.20;;
3034;SDS011;1527;48.836;9.172;2022-09-23T07:31:42;12.90;;;8.35;;
3034;SDS011;1527;48.836;9.172;2022-09-23T07:34:11;8.85;;;7.53;;
3034;SDS011;1527;48.836;9.172;2022-09-23T07:36:40;11.07;;;8.95;;
3034;SDS011;1527;48.836;9.172;2022-09-23T07:39:11;13.82;;;8.57;;
3034;SDS011;1527;48.836;9.172;2022-09-23T07:41:40;13.73;;;9.00;;
3034;SDS011;1527;48.836;9.172;2022-09-23T07:44:10;13.63;;;9.05;;
3034;SDS011;1527;48.836;9.172;2022-09-23T07:46:40;13.20;;;7.95;;
3034;SDS011;1527;48.836;9.172;2022-09-23T07:49:09;11.25;;;7.00;;
3034;SDS011;1527;48.836;9.172;2022-09-23T07:51:39;10.68;;;7.70;;
3034;SDS011;1527;48.836;9.172;2022-09-23T07:54:14;12.57;;;7.53;;
3034;SDS011;1527;48.836;9.172;2022-09-23T07:56:44;15.85;;;8.30;;
3034;SDS011;1527;48.836;9.172;2022-09-23T07:59:14;11.10;;;8.00;;
3034;SDS011;1527;48.836;9.172;2022-09-23T08:01:46;8.75;;;7.13;;
3034;SDS011;1527;48.836;9.172;2022-09-23T08:04:20;9.05;;;7.32;;
3034;SDS011;1527;48.836;9.172;2022-09-23T08:06:52;8.30;;;6.75;;
3034;SDS011;1527;48.836;9.172;2022-09-23T08:09:25;9.45;;;6.95;;
3034;SDS011;1527;48.836;9.172;2022-09-23T08:11:57;7.43;;;6.45;;
3034;SDS011;1527;48.836;9.172;2022-09-23T08:14:27;7.13;;;6.43;;
3034;SDS011;1527;48.836;9.172;2022-09-23T08:16:56;7.88;;;6.03;;
3034;SDS011;1527;48.836;9.172;2022-09-23T08:19:25;7.35;;;6.57;;
3034;SDS011;1527;48.836;9.172;2022-09-23T08:21:54;8.90;;;6.35;;
3034;SDS011;1527;48.836;9.172;2022-09-23T08:24:25;8.98;;;5.78;;
3034;SDS011;1527;48.836;9.172;2022-09-23T08:26:56;10.82;;;5.85;;
3034;SDS011;1527;48.836;9.172;2022-09-23T08:29:25;9.20;;;6.35;;
3034;SDS011;1527;48.836;9.172;2022-09-23T08:31:54;7.78;;;6.32;;
3034;SDS011;1527;48.836;9.172;2022-09-23T08:34:25;8.27;;;5.88;;
3034;SDS011;1527;48.836;9.172;2022-09-23T08:36:55;7.10;;;5.75;;
3034;SDS011;1527;48.836;9.172;2022-09-23T08:39:25;15.18;;;5.90;;
3034;SDS011;1527;48.836;9.172;2022-09-23T08:42:00;7.55;;;6.03;;
3034;SDS011;1527;48.836;9.172;2022-09-23T08:44:42;7.00;;;5.85;;
3034;SDS011;1527;48.836;9.172;2022-09-23T08:47:18;7.30;;;5.93;;
3034;SDS011;1527;48.836;9.172;2022-09-23T08:49:53;10.25;;;6.43;;
3034;SDS011;1527;48.836;9.172;2022-09-23T08:52:31;8.85;;;6.18;;
3034;SDS011;1527;48.836;9.172;2022-09-23T08:55:08;8.45;;;6.18;;
3034;SDS011;1527;48.836;9.172;2022-09-23T08:57:42;8.13;;;6.25;;
3034;SDS011;1527;48.836;9.172;2022-09-23T09:00:45;7.25;;;6.30;;
3034;SDS011;1527;48.836;9.172;2022-09-23T09:03:23;9.07;;;6.50;;
3034;SDS011;1527;48.836;9.172;2022-09-23T09:06:01;6.63;;;5.32;;
3034;SDS011;1527;48.836;9.172;2022-09-23T09:08:31;7.93;;;6.32;;
3034;SDS011;1527;48.836;9.172;2022-09-23T09:11:05;6.63;;;6.07;;
3034;SDS011;1527;48.836;9.172;2022-09-23T09:13:39;11.05;;;6.38;;
3034;SDS011;1527;48.836;9.172;2022-09-23T09:16:22;7.47;;;5.93;;
3034;SDS011;1527;48.836;9.172;2022-09-23T09:19:38;7.45;;;5.50;;
3034;SDS011;1527;48.836;9.172;2022-09-23T09:22:20;7.32;;;5.70;;
3034;SDS011;1527;48.836;9.172;2022-09-23T09:25:09;6.32;;;5.65;;
3034;SDS011;1527;48.836;9.172;2022-09-23T09:27:53;7.75;;;5.70;;
3034;SDS011;1527;48.836;9.172;2022-09-23T09:30:23;6.15;;;5.55;;
3034;SDS011;1527;48.836;9.172;2022-09-23T09:32:54;6.55;;;5.45;;
3034;SDS011;1527;48.836;9.172;2022-09-23T09:35:31;11.40;;;5.90;;
3034;SDS011;1527;48.836;9.172;2022-09-23T09:38:04;8.85;;;6.00;;
3034;SDS011;1527;48.836;9.172;2022-09-23T09:40:34;9.40;;;5.82;;
3034;SDS011;1527;48.836;9.172;2022-09-23T09:43:10;7.90;;;5.50;;
3034;SDS011;1527;48.836;9.172;2022-09-23T09:45:52;6.38;;;5.40;;
3034;SDS011;1527;48.836;9.172;2022-09-23T09:48:35;9.18;;;6.45;;
3034;SDS011;1527;48.836;9.172;2022-09-23T09:51:17;6.65;;;6.05;;
3034;SDS011;1527;48.836;9.172;2022-09-23T09:53:48;7.40;;;6.63;;
3034;SDS011;1527;48.836;9.172;2022-09-23T09:56:20;8.73;;;5.40;;
3034;SDS011;1527;48.836;9.172;2022-09-23T09:59:00;7.68;;;6.25;;
3034;SDS011;1527;48.836;9.172;2022-09-23T10:01:37;8.02;;;6.22;;
3034;SDS011;1527;48.836;9.172;2022-09-23T10:04:18;7.13;;;5.50;;
3034;SDS011;1527;48.836;9.172;2022-09-23T10:07:02;9.40;;;5.93;;
3034;SDS011;1527;48.836;9.172;2022-09-23T10:09:34;14.27;;;5.93;;
3034;SDS011;1527;48.836;9.172;2022-09-23T10:12:10;5.72;;;5.25;;
3034;SDS011;1527;48.836;9.172;2022-09-23T10:14:43;11.93;;;6.65;;
3034;SDS011;1527;48.836;9.172;2022-09-23T10:17:18;8.82;;;5.70;;
3034;SDS011;1527;48.836;9.172;2022-09-23T10:19:52;6.03;;;5.50;;
3034;SDS011;1527;48.836;9.172;2022-09-23T10:22:27;6.40;;;4.78;;
3034;SDS011;1527;48.836;9.172;2022-09-23T10:25:05;6.57;;;5.85;;
3034;SDS011;1527;48.836;9.172;2022-09-23T10:27:42;7.32;;;5.40;;
3034;SDS011;1527;48.836;9.172;2022-09-23T10:30:20;10.13;;;5.72;;
3034;SDS011;1527;48.836;9.172;2022-09-23T10:32:52;7.50;;;6.60;;
3034;SDS011;1527;48.836;9.172;2022-09-23T10:35:24;7.03;;;5.20;;
3034;SDS011;1527;48.836;9.172;2022-09-23T10:37:55;5.72;;;5.22;;
3034;SDS011;1527;48.836;9.172;2022-09-23T10:40:29;5.07;;;4.63;;
3034;SDS011;1527;48.836;9.172;2022-09-23T10:43:25;5.40;;;4.85;;
3034;SDS011;1527;48.836;9.172;2022-09-23T10:46:21;6.45;;;4.68;;
3034;SDS011;1527;48.836;9.172;2022-09-23T10:49:20;7.82;;;5.50;;
3034;SDS011;1527;48.836;9.172;2022-09-23T10:52:21;7.72;;;5.80;;
3034;SDS011;1527;48.836;9.172;2022-09-23T10:55:16;7.72;;;6.22;;
3034;SDS011;1527;48.836;9.172;2022-09-23T10:58:25;8.10;;;5.78;;
3034;SDS011;1527;48.836;9.172;2022-09-23T11:01:28;5.43;;;4.65;;
3034;SDS011;1527;48.836;9.172;2022-09-23T11:04:23;6.32;;;5.55;;
3034;SDS011;1527;48.836;9.172;2022-09-23T11:07:26;8.60;;;5.53;;
3034;SDS011;1527;48.836;9.172;2022-09-23T11:10:08;13.75;;;5.75;;
3034;SDS011;1527;48.836;9.172;2022-09-23T11:13:16;5.65;;;5.15;;
3034;SDS011;1527;48.836;9.172;2022-09-23T11:16:01;7.63;;;5.00;;
3034;SDS011;1527;48.836;9.172;2022-09-23T11:21:57;6.35;;;4.75;;
3034;SDS011;1527;48.836;9.172;2022-09-23T11:24:52;5.70;;;4.30;;
3034;SDS011;1527;48.836;9.172;2022-09-23T11:27:48;5.90;;;4.32;;
3034;SDS011;1527;48.836;9.172;2022-09-23T11:30:36;6.35;;;4.55;;
3034;SDS011;1527;48.836;9.172;2022-09-23T11:33:18;5.60;;;5.10;;
3034;SDS011;1527;48.836;9.172;2022-09-23T11:36:05;5.90;;;5.40;;
3034;SDS011;1527;48.836;9.172;2022-09-23T11:38:39;4.95;;;4.47;;
3034;SDS011;1527;48.836;9.172;2022-09-23T11:41:13;5.93;;;4.93;;
3034;SDS011;1527;48.836;9.172;2022-09-23T11:43:48;6.63;;;5.50;;
3034;SDS011;1527;48.836;9.172;2022-09-23T11:46:24;7.50;;;5.22;;
3034;SDS011;1527;48.836;9.172;2022-09-23T11:49:04;8.10;;;4.97;;
3034;SDS011;1527;48.836;9.172;2022-09-23T11:51:45;7.15;;;6.05;;
3034;SDS011;1527;48.836;9.172;2022-09-23T11:54:30;6.15;;;5.13;;
3034;SDS011;1527;48.836;9.172;2022-09-23T11:57:21;6.88;;;6.13;;
3034;SDS011;1527;48.836;9.172;2022-09-23T12:00:15;6.93;;;6.25;;
3034;SDS011;1527;48.836;9.172;2022-09-23T12:02:58;6.93;;;6.05;;
3034;SDS011;1527;48.836;9.172;2022-09-23T12:05:47;8.40;;;5.90;;
3034;SDS011;1527;48.836;9.172;2022-09-23T12:08:42;7.30;;;6.28;;
3034;SDS011;1527;48.836;9.172;2022-09-23T12:11:20;7.65;;;5.97;;
3034;SDS011;1527;48.836;9.172;2022-09-23T12:14:08;9.00;;;7.75;;
3034;SDS011;1527;48.836;9.172;2022-09-23T12:17:01;10.65;;;6.40;;
3034;SDS011;1527;48.836;9.172;2022-09-23T12:22:57;6.40;;;5.03;;
3034;SDS011;1527;48.836;9.172;2022-09-23T12:25:45;6.40;;;5.70;;
3034;SDS011;1527;48.836;9.172;2022-09-23T12:28:22;5.78;;;5.28;;
3034;SDS011;1527;48.836;9.172;2022-09-23T12:30:58;8.68;;;6.30;;
3034;SDS011;1527;48.836;9.172;2022-09-23T12:33:32;6.03;;;5.07;;
3034;SDS011;1527;48.836;9.172;2022-09-23T12:36:08;7.15;;;5.68;;
3034;SDS011;1527;48.836;9.172;2022-09-23T12:38:45;5.35;;;4.63;;
3034;SDS011;1527;48.836;9.172;2022-09-23T12:41:25;6.90;;;4.75;;
3034;SDS011;1527;48.836;9.172;2022-09-23T12:44:12;5.93;;;4.15;;
3034;SDS011;1527;48.836;9.172;2022-09-23T12:59:56;6.15;;;5.55;;
3034;SDS011;1527;48.836;9.172;2022-09-23T13:03:02;6.88;;;4.72;;
3034;SDS011;1527;48.836;9.172;2022-09-23T13:05:55;5.72;;;4.32;;
3034;SDS011;1527;48.836;9.172;2022-09-23T13:08:49;5.15;;;4.65;;
3034;SDS011;1527;48.836;9.172;2022-09-23T13:11:23;9.02;;;4.65;;
3034;SDS011;1527;48.836;9.172;2022-09-23T13:14:01;9.20;;;5.30;;
3034;SDS011;1527;48.836;9.172;2022-09-23T13:16:44;8.65;;;5.13;;
3034;SDS011;1527;48.836;9.172;2022-09-23T13:22:15;6.35;;;4.50;;
3034;SDS011;1527;48.836;9.172;2022-09-23T13:25:34;5.85;;;5.25;;
3034;SDS011;1527;48.836;9.172;2022-09-23T13:28:12;6.75;;;5.18;;
3034;SDS011;1527;48.836;9.172;2022-09-23T13:30:56;6.50;;;3.80;;
3034;SDS011;1527;48.836;9.172;2022-09-23T13:33:31;7.03;;;4.53;;
3034;SDS011;1527;48.836;9.172;2022-09-23T13:36:10;8.15;;;4.15;;
3034;SDS011;1527;48.836;9.172;2022-09-23T13:38:41;4.50;;;4.10;;
3034;SDS011;1527;48.836;9.172;2022-09-23T13:41:13;9.02;;;4.90;;
3034;SDS011;1527;48.836;9.172;2022-09-23T13:43:47;4.90;;;4.50;;
3034;SDS011;1527;48.836;9.172;2022-09-23T13:46:20;4.57;;;4.18;;
3034;SDS011;1527;48.836;9.172;2022-09-23T13:48:51;4.78;;;4.28;;
3034;SDS011;1527;48.836;9.172;2022-09-23T13:51:22;6.78;;;4.47;;
3034;SDS011;1527;48.836;9.172;2022-09-23T13:53:54;4.95;;;4.55;;
3034;SDS011;1527;48.836;9.172;2022-09-23T13:56:26;13.52;;;4.50;;
3034;SDS011;1527;48.836;9.172;2022-09-23T13:59:10;7.13;;;4.30;;
3034;SDS011;1527;48.836;9.172;2022-09-23T14:02:02;4.30;;;3.90;;
3034;SDS011;1527;48.836;9.172;2022-09-23T14:04:32;4.97;;;4.18;;
3034;SDS011;1527;48.836;9.172;2022-09-23T14:07:02;8.05;;;4.35;;
3034;SDS011;1527;48.836;9.172;2022-09-23T14:09:34;6.72;;;4.07;;
3034;SDS011;1527;48.836;9.172;2022-09-23T14:12:08;5.95;;;4.55;;
3034;SDS011;1527;48.836;9.172;2022-09-23T14:14:39;4.85;;;4.30;;
3034;SDS011;1527;48.836;9.172;2022-09-23T14:17:13;7.70;;;4.72;;
3034;SDS011;1527;48.836;9.172;2022-09-23T14:19:46;7.20;;;5.00;;
3034;SDS011;1527;48.836;9.172;2022-09-23T14:22:21;5.40;;;4.90;;
3034;SDS011;1527;48.836;9.172;2022-09-23T14:24:52;6.57;;;5.28;;
3034;SDS011;1527;48.836;9.172;2022-09-23T14:27:26;5.30;;;4.80;;
3034;SDS011;1527;48.836;9.172;2022-09-23T14:29:58;10.70;;;5.13;;
3034;SDS011;1527;48.836;9.172;2022-09-23T14:32:32;7.32;;;5.10;;
3034;SDS011;1527;48.836;9.172;2022-09-23T14:35:05;8.82;;;5.47;;
3034;SDS011;1527;48.836;9.172;2022-09-23T14:37:49;5.80;;;5.30;;
3034;SDS011;1527;48.836;9.172;2022-09-23T14:40:48;5.38;;;4.70;;
3034;SDS011;1527;48.836;9.172;2022-09-23T14:43:44;5.78;;;5.03;;
3034;SDS011;1527;48.836;9.172;2022-09-23T14:46:17;8.10;;;5.40;;
3034;SDS011;1527;48.836;9.172;2022-09-23T14:48:53;7.63;;;5.47;;
3034;SDS011;1527;48.836;9.172;2022-09-23T14:51:28;9.00;;;5.20;;
3034;SDS011;1527;48.836;9.172;2022-09-23T14:56:55;7.38;;;4.90;;
3034;SDS011;1527;48.836;9.172;2022-09-23T14:59:26;5.10;;;4.60;;
3034;SDS011;1527;48.836;9.172;2022-09-23T15:01:59;5.80;;;5.30;;
3034;SDS011;1527;48.836;9.172;2022-09-23T15:04:30;5.55;;;5.05;;
3034;SDS011;1527;48.836;9.172;2022-09-23T15:07:02;7.22;;;5.10;;
3034;SDS011;1527;48.836;9.172;2022-09-23T15:09:37;6.20;;;5.60;;
3034;SDS011;1527;48.836;9.172;2022-09-23T15:12:11;5.72;;;5.22;;
3034;SDS011;1527;48.836;9.172;2022-09-23T15:14:43;5.38;;;4.88;;
3034;SDS011;1527;48.836;9.172;2022-09-23T15:17:26;6.10;;;5.50;;
3034;SDS011;1527;48.836;9.172;2022-09-23T15:20:03;6.85;;;4.68;;
3034;SDS011;1527;48.836;9.172;2022-09-23T15:22:41;6.22;;;5.13;;
3034;SDS011;1527;48.836;9.172;2022-09-23T15:25:14;5.60;;;5.10;;
3034;SDS011;1527;48.836;9.172;2022-09-23T15:27:54;5.80;;;5.30;;
3034;SDS011;1527;48.836;9.172;2022-09-23T15:30:30;5.60;;;4.70;;
3034;SDS011;1527;48.836;9.172;2022-09-23T15:33:02;7.70;;;4.28;;
3034;SDS011;1527;48.836;9.172;2022-09-23T15:35:35;7.60;;;4.47;;
3034;SDS011;1527;48.836;9.172;2022-09-23T15:38:08;10.10;;;4.57;;
3034;SDS011;1527;48.836;9.172;2022-09-23T15:40:37;5.25;;;4.25;;
3034;SDS011;1527;48.836;9.172;2022-09-23T15:43:09;6.40;;;5.80;;
3034;SDS011;1527;48.836;9.172;2022-09-23T15:45:48;7.70;;;5.30;;
3034;SDS011;1527;48.836;9.172;2022-09-23T15:48:20;5.40;;;4.70;;
3034;SDS011;1527;48.836;9.172;2022-09-23T15:50:53;6.25;;;5.47;;
3034;SDS011;1527;48.836;9.172;2022-09-23T15:53:25;8.25;;;5.47;;
3034;SDS011;1527;48.836;9.172;2022-09-23T15:55:55;5.25;;;4.47;;
3034;SDS011;1527;48.836;9.172;2022-09-23T15:58:25;6.57;;;5.28;;
3034;SDS011;1527;48.836;9.172;2022-09-23T16:00:54;5.53;;;4.97;;
3034;SDS011;1527;48.836;9.172;2022-09-23T16:03:25;6.35;;;4.45;;
3034;SDS011;1527;48.836;9.172;2022-09-23T16:05:58;8.00;;;5.00;;
3034;SDS011;1527;48.836;9.172;2022-09-23T16:08:30;5.90;;;4.20;;
3034;SDS011;1527;48.836;9.172;2022-09-23T16:10:59;7.05;;;5.20;;
3034;SDS011;1527;48.836;9.172;2022-09-23T16:13:28;5.78;;;4.80;;
3034;SDS011;1527;48.836;9.172;2022-09-23T16:15:57;4.80;;;4.40;;
3034;SDS011;1527;48.836;9.172;2022-09-23T16:18:27;5.50;;;4.45;;
3034;SDS011;1527;48.836;9.172;2022-09-23T16:20:57;4.53;;;3.65;;
3034;SDS011;1527;48.836;9.172;2022-09-23T16:23:27;5.75;;;5.00;;
3034;SDS011;1527;48.836;9.172;2022-09-23T16:26:02;4.75;;;4.35;;
3034;SDS011;1527;48.836;9.172;2022-09-23T16:28:34;5.18;;;4.70;;
3034;SDS011;1527;48.836;9.172;2022-09-23T16:31:03;4.90;;;4.50;;
3034;SDS011;1527;48.836;9.172;2022-09-23T16:33:33;5.78;;;4.93;;